Time;durP1;ratioP1;P1;durP2;ratioP2;P2;SDS_P1;SDS_P2;PMS_P1;PMS_P2;Temp;Humidity;BMP_temperature;BMP_pressure;BME280_temperature;BME280_humidity;BME280_pressure;Samples;Min_cycle;Max_cycle;Signal;HPM_P1;HPM_P2
2022/11/29 00:03:27;;;;;;;11.35;5.28;;;;;;;1.99;100.00;101655.34;10294462;28;20510;-73
2022/11/29 00:08:28;;;;;;;11.35;4.28;;;;;;;1.74;100.00;101632.19;10294849;28;20124;-72
2022/11/29 00:13:29;;;;;;;13.02;4.65;;;;;;;1.35;100.00;101562.63;10294340;28;20085;-73
2022/11/29 00:18:30;;;;;;;11.85;4.63;;;;;;;2.25;100.00;101706.41;10293724;28;20549;-73
2022/11/29 00:23:31;;;;;;;13.15;4.20;;;;;;;2.25;100.00;101709.84;10294153;28;20042;-73
2022/11/29 00:28:33;;;;;;;13.95;5.32;;;;;;;2.19;100.00;101688.38;10294109;28;20184;-73
2022/11/29 00:33:33;;;;;;;14.65;4.85;;;;;;;2.20;100.00;101704.00;10292114;28;20566;-73
2022/11/29 00:38:34;;;;;;;15.35;4.80;;;;;;;2.12;100.00;101706.16;10319860;28;20105;-73
2022/11/29 00:43:35;;;;;;;17.60;4.95;;;;;;;2.03;100.00;101704.03;10292919;28;20051;-73
2022/11/29 00:48:36;;;;;;;16.48;4.50;;;;;;;2.00;100.00;101707.66;10293549;28;20058;-73
2022/11/29 00:53:37;;;;;;;15.02;4.15;;;;;;;1.48;100.00;101623.03;10293127;28;20482;-73
2022/11/29 00:58:38;;;;;;;16.58;4.28;;;;;;;1.35;100.00;101634.16;10293889;28;20050;-75
2022/11/29 01:03:39;;;;;;;16.65;4.55;;;;;;;1.87;100.00;101729.34;10292060;28;20050;-73
2022/11/29 01:08:40;;;;;;;13.40;4.30;;;;;;;1.88;100.00;101741.50;10293093;28;20077;-73
2022/11/29 01:13:42;;;;;;;15.20;4.43;;;;;;;1.80;100.00;101716.56;10293214;28;20043;-73
2022/11/29 01:18:43;;;;;;;13.90;4.63;;;;;;;1.77;100.00;101705.38;10291992;28;20419;-73
2022/11/29 01:23:45;;;;;;;16.75;4.38;;;;;;;1.87;100.00;101740.66;10302676;28;20043;-74
2022/11/29 01:28:47;;;;;;;15.85;4.75;;;;;;;1.83;100.00;101732.13;10292094;28;20078;-73
2022/11/29 01:33:52;;;;;;;6.88;3.50;;;;;;;1.90;100.00;101731.81;10292338;28;20070;-73
2022/11/29 01:38:53;;;;;;;11.02;3.53;;;;;;;1.81;100.00;101709.53;10291924;28;20054;-73
2022/11/29 01:44:05;;;;;;;10.13;3.53;;;;;;;1.79;100.00;101701.75;10291974;28;20042;-73
2022/11/29 01:49:21;;;;;;;10.43;3.50;;;;;;;1.76;100.00;101717.63;10291841;28;20063;-74
2022/11/29 01:54:22;;;;;;;8.52;3.70;;;;;;;1.86;100.00;101738.97;10291160;28;20043;-73
2022/11/29 01:59:27;;;;;;;14.35;3.70;;;;;;;1.74;100.00;101724.72;10291325;28;20055;-73
2022/11/29 02:04:32;;;;;;;8.60;4.35;;;;;;;1.37;100.00;101668.09;10291233;28;20039;-73
2022/11/29 02:09:33;;;;;;;14.25;4.80;;;;;;;1.85;100.00;101752.16;10294267;28;20509;-73
2022/11/29 02:14:54;;;;;;;10.75;4.70;;;;;;;1.89;100.00;101751.09;10299145;28;20034;-73
2022/11/29 02:20:23;;;;;;;11.05;4.75;;;;;;;1.93;100.00;101750.00;10297185;28;20070;-73
2022/11/29 02:25:38;;;;;;;19.25;5.55;;;;;;;1.89;100.00;101745.84;10298770;28;20088;-73
2022/11/29 02:31:04;;;;;;;20.02;5.30;;;;;;;1.86;100.00;101753.88;10321788;28;20042;-72
2022/11/29 02:36:23;;;;;;;24.85;5.25;;;;;;;1.76;100.00;101738.56;10300317;28;20459;-72
2022/11/29 02:41:55;;;;;;;15.90;5.00;;;;;;;1.76;100.00;101743.81;10298151;28;20078;-73
2022/11/29 02:47:24;;;;;;;15.25;5.22;;;;;;;1.70;100.00;101757.22;10332984;28;20113;-72
2022/11/29 02:52:33;;;;;;;17.77;5.53;;;;;;;1.64;100.00;101749.66;10319115;28;20045;-72
2022/11/29 02:57:48;;;;;;;10.90;4.93;;;;;;;1.60;100.00;101756.00;10297977;28;20053;-72
2022/11/29 03:03:11;;;;;;;10.73;4.80;;;;;;;1.48;100.00;101782.78;10296491;28;20388;-71
2022/11/29 03:08:53;;;;;;;13.60;4.75;;;;;;;1.41;100.00;101771.75;10301474;28;20053;-72
2022/11/29 03:14:30;;;;;;;18.45;5.07;;;;;;;1.32;100.00;101780.91;10305419;28;20081;-72
2022/11/29 03:20:08;;;;;;;13.00;4.80;;;;;;;1.30;100.00;101787.13;10295550;28;20134;-71
2022/11/29 03:25:31;;;;;;;17.63;5.30;;;;;;;1.30;100.00;101782.75;10299155;28;20745;-72
2022/11/29 03:30:37;;;;;;;14.90;5.35;;;;;;;0.65;100.00;101695.09;10280902;28;20147;-71
2022/11/29 03:36:16;;;;;;;10.75;5.03;;;;;;;1.20;100.00;101798.94;10292942;28;20043;-72
2022/11/29 03:41:16;;;;;;;7.22;4.72;;;;;;;0.61;100.00;101725.78;10292428;28;20065;-71
2022/11/29 03:46:22;;;;;;;13.20;4.65;;;;;;;1.15;100.00;101809.63;10308828;28;20058;-73
2022/11/29 03:51:36;;;;;;;13.43;4.88;;;;;;;1.01;100.00;101802.41;10296080;28;20055;-71
2022/11/29 03:56:39;;;;;;;10.25;4.78;;;;;;;0.85;100.00;101794.44;10295127;28;20047;-72
2022/11/29 04:02:04;;;;;;;12.70;4.45;;;;;;;1.06;100.00;101831.00;10294985;28;20051;-72
2022/11/29 04:07:30;;;;;;;15.32;4.68;;;;;;;0.98;100.00;101820.03;10294658;28;20126;-73
2022/11/29 04:12:43;;;;;;;14.88;5.30;;;;;;;1.08;100.00;101839.66;10289294;28;20038;-73
2022/11/29 04:17:46;;;;;;;17.52;5.40;;;;;;;0.62;100.00;101765.84;10287785;28;20152;-73
2022/11/29 04:23:38;;;;;;;18.00;5.83;;;;;;;1.20;100.00;101852.16;10288203;28;20148;-73
2022/11/29 04:28:57;;;;;;;10.38;4.20;;;;;;;1.20;100.00;101870.50;10267341;28;20050;-74
2022/11/29 04:34:04;;;;;;;10.02;4.13;;;;;;;0.82;100.00;101809.44;10293398;28;20039;-72
2022/11/29 04:39:37;;;;;;;16.63;4.63;;;;;;;1.16;100.00;101873.31;10293610;28;20393;-72
2022/11/29 04:44:44;;;;;;;12.68;3.67;;;;;;;1.09;100.00;101883.22;10300656;28;20070;-72
2022/11/29 04:50:15;;;;;;;8.55;3.67;;;;;;;0.93;100.00;101859.50;10330658;28;20093;-73
2022/11/29 04:55:35;;;;;;;11.85;4.32;;;;;;;0.96;100.00;101887.28;10325874;28;20047;-73
2022/11/29 05:00:46;;;;;;;11.85;3.72;;;;;;;0.50;100.00;101827.38;10306449;28;20050;-71
2022/11/29 05:05:58;;;;;;;9.68;4.10;;;;;;;0.48;100.00;101820.50;10280192;28;20146;-72
2022/11/29 05:11:17;;;;;;;10.18;3.40;;;;;;;1.04;100.00;101906.94;10298942;28;20514;-70
2022/11/29 05:17:06;;;;;;;9.00;3.40;;;;;;;0.92;100.00;101902.25;10322069;28;20050;-72
2022/11/29 05:22:22;;;;;;;7.15;2.58;;;;;;;0.94;100.00;101925.75;10225418;28;20047;-73
2022/11/29 05:27:23;;;;;;;8.07;2.75;;;;;;;0.91;100.00;101942.44;10252354;28;20404;-72
2022/11/29 05:32:46;;;;;;;14.00;3.40;;;;;;;0.90;100.00;101931.13;10251642;28;20051;-74
2022/11/29 05:38:03;;;;;;;13.63;2.70;;;;;;;0.97;100.00;101944.78;10251405;29;20043;-72
2022/11/29 05:43:37;;;;;;;13.25;3.05;;;;;;;0.98;100.00;101938.63;10300749;28;20093;-72
2022/11/29 05:48:51;;;;;;;10.32;2.28;;;;;;;0.93;100.00;101937.13;10294519;28;20058;-74
2022/11/29 05:54:12;;;;;;;5.10;2.15;;;;;;;0.98;100.00;101950.88;10312359;28;20055;-72
2022/11/29 05:59:19;;;;;;;9.45;2.17;;;;;;;0.88;100.00;101943.41;10330864;28;20560;-73
2022/11/29 06:04:49;;;;;;;10.15;2.63;;;;;;;1.00;100.00;101944.66;10331376;28;20249;-73
2022/11/29 06:10:00;;;;;;;14.35;2.45;;;;;;;1.04;100.00;101958.44;10331832;28;20054;-71
2022/11/29 06:15:38;;;;;;;8.20;2.47;;;;;;;1.12;100.00;101954.59;10331251;28;20050;-72
2022/11/29 06:20:58;;;;;;;8.07;2.60;;;;;;;1.14;100.00;101944.91;10330871;28;20078;-72
2022/11/29 06:26:08;;;;;;;8.38;2.50;;;;;;;1.08;100.00;101946.94;10347104;28;20066;-73
2022/11/29 06:31:28;;;;;;;9.05;2.30;;;;;;;0.69;100.00;101869.28;10331109;28;20038;-72
2022/11/29 06:37:14;;;;;;;9.45;2.40;;;;;;;1.16;100.00;101962.28;10330976;28;20451;-72
2022/11/29 06:42:15;;;;;;;11.02;2.05;;;;;;;0.45;100.00;101872.03;10327067;28;20054;-72
2022/11/29 06:47:52;;;;;;;6.70;2.05;;;;;;;1.07;100.00;101968.78;10330609;28;20066;-72
2022/11/29 06:53:15;;;;;;;7.32;2.15;;;;;;;1.19;99.17;101965.63;10298776;28;20050;-72
2022/11/29 06:58:44;;;;;;;6.57;1.83;;;;;;;1.28;98.79;101970.44;10328148;28;20426;-75
2022/11/29 07:04:12;;;;;;;6.65;2.00;;;;;;;1.17;96.29;101975.34;10353053;28;20042;-74
2022/11/29 07:09:19;;;;;;;5.88;2.15;;;;;;;1.16;96.60;101955.28;10337712;28;20042;-72
2022/11/29 07:14:20;;;;;;;11.13;2.53;;;;;;;1.06;97.22;101952.22;10338149;28;20483;-71
2022/11/29 07:19:44;;;;;;;13.68;2.90;;;;;;;1.31;97.37;101959.84;10336328;28;20049;-71
2022/11/29 07:25:16;;;;;;;9.32;2.20;;;;;;;1.36;96.09;101960.50;10337354;28;20046;-72
2022/11/29 07:30:31;;;;;;;7.15;2.30;;;;;;;1.36;95.22;101954.41;10336916;28;20126;-74
2022/11/29 07:35:44;;;;;;;12.40;2.15;;;;;;;0.68;93.64;101855.34;10336130;28;20536;-72
2022/11/29 07:40:54;;;;;;;7.38;1.92;;;;;;;1.24;95.34;101953.19;10335742;28;20561;-73
2022/11/29 07:45:56;;;;;;;11.48;2.10;;;;;;;1.12;95.32;101917.09;10335610;28;20046;-73
2022/11/29 07:50:56;;;;;;;8.70;2.13;;;;;;;0.87;95.41;101870.25;10336052;28;20057;-74
2022/11/29 07:55:57;;;;;;;9.88;3.08;;;;;;;0.96;95.95;101867.22;10336127;28;20053;-72
2022/11/29 08:00:58;;;;;;;11.30;2.95;;;;;;;1.54;95.54;101937.00;10334711;28;20046;-72
2022/11/29 08:05:59;;;;;;;15.52;2.67;;;;;;;1.53;95.35;101938.78;10335256;28;20042;-73
2022/11/29 08:11:00;;;;;;;26.65;17.15;;;;;;;0.97;94.23;101850.59;10334175;28;20038;-72
2022/11/29 08:16:00;;;;;;;19.45;8.65;;;;;;;1.32;94.12;101913.59;10334702;28;20046;-71
2022/11/29 08:21:06;;;;;;;9.02;3.40;;;;;;;0.95;93.07;101864.66;10334600;28;20042;-73
2022/11/29 08:26:07;;;;;;;7.72;2.60;;;;;;;1.36;93.34;101930.84;10334537;28;20178;-72
2022/11/29 08:31:11;;;;;;;8.75;3.03;;;;;;;1.09;92.40;101878.81;10349786;28;20150;-74
2022/11/29 08:36:19;;;;;;;8.80;2.47;;;;;;;1.39;93.19;101901.06;10333485;28;20410;-72
2022/11/29 08:41:20;;;;;;;8.90;1.92;;;;;;;0.78;91.72;101819.19;10333955;28;20046;-71
2022/11/29 08:46:21;;;;;;;14.82;2.40;;;;;;;1.11;91.48;101892.69;10333006;28;20049;-71
2022/11/29 08:51:22;;;;;;;15.57;2.47;;;;;;;1.02;92.26;101871.34;10347826;28;20058;-73
2022/11/29 08:56:22;;;;;;;8.57;2.70;;;;;;;0.14;92.38;101746.19;10349159;28;20050;-72
2022/11/29 09:01:23;;;;;;;8.68;2.60;;;;;;;1.05;93.21;101877.28;10333030;28;20046;-71
2022/11/29 09:06:26;;;;;;;10.32;2.30;;;;;;;1.13;92.36;101879.53;10333402;28;20640;-70
2022/11/29 09:11:28;;;;;;;13.73;2.45;;;;;;;0.96;92.27;101872.44;10347915;28;20034;-71
2022/11/29 09:16:31;;;;;;;7.63;2.08;;;;;;;1.05;92.53;101881.66;10332454;28;20043;-71
2022/11/29 09:21:35;;;;;;;8.33;2.67;;;;;;;1.08;92.68;101878.91;10332375;28;20042;-70
2022/11/29 09:26:39;;;;;;;14.17;2.53;;;;;;;1.09;92.39;101872.75;10331821;28;20042;-71
2022/11/29 09:31:41;;;;;;;9.15;2.10;;;;;;;1.43;93.02;101907.84;10331649;28;20358;-72
2022/11/29 09:36:43;;;;;;;7.55;1.83;;;;;;;1.48;92.04;101895.41;10347133;28;20035;-73
2022/11/29 09:42:01;;;;;;;15.93;3.88;;;;;;;1.46;92.29;101905.06;10332359;28;20383;-71
2022/11/29 09:47:18;;;;;;;21.33;3.40;;;;;;;1.53;93.00;101891.63;10331830;28;20573;-70
2022/11/29 09:52:43;;;;;;;11.68;3.30;;;;;;;1.36;92.42;101878.47;10331942;28;20046;-73
2022/11/29 09:57:45;;;;;;;16.98;3.88;;;;;;;0.83;92.30;101814.56;10330917;28;20039;-71
2022/11/29 10:02:54;;;;;;;12.90;4.38;;;;;;;1.13;92.75;101861.19;10331742;28;20056;-71
2022/11/29 10:08:05;;;;;;;12.00;4.43;;;;;;;1.43;93.04;101886.91;10332167;28;20042;-71
2022/11/29 10:13:18;;;;;;;11.90;3.28;;;;;;;1.34;90.37;101883.78;10331250;28;20559;-70
2022/11/29 10:18:27;;;;;;;9.20;3.53;;;;;;;1.33;92.50;101882.09;10346314;28;20133;-71
2022/11/29 10:23:57;;;;;;;14.98;4.00;;;;;;;1.24;90.95;101898.22;10331220;28;20034;-72
2022/11/29 10:28:58;;;;;;;7.53;2.50;;;;;;;1.12;91.89;101885.69;10328594;28;20086;-72
2022/11/29 10:34:10;;;;;;;11.45;2.50;;;;;;;0.93;92.48;101875.22;10338917;28;20125;-71
2022/11/29 10:39:36;;;;;;;6.47;2.15;;;;;;;1.17;91.00;101902.03;10338559;28;20502;-70
2022/11/29 10:44:36;;;;;;;10.18;2.85;;;;;;;1.12;91.57;101919.72;10311742;28;20035;-71
2022/11/29 10:49:39;;;;;;;9.70;2.05;;;;;;;0.41;91.86;101799.88;10336018;28;20054;-73
2022/11/29 10:54:42;;;;;;;18.88;2.50;;;;;;;1.11;91.68;101926.72;10337706;28;20052;-73
2022/11/29 11:00:03;;;;;;;12.57;2.78;;;;;;;1.00;91.80;101928.94;10335311;28;20070;-72
2022/11/29 11:05:17;;;;;;;10.45;2.40;;;;;;;0.55;92.46;101842.88;10311674;28;20612;-73
2022/11/29 11:10:29;;;;;;;8.40;2.22;;;;;;;1.05;90.74;101928.75;10303820;28;20046;-72
2022/11/29 11:15:31;;;;;;;14.65;2.15;;;;;;;0.17;92.09;101777.41;10297305;28;20046;-70
2022/11/29 11:20:39;;;;;;;11.85;2.40;;;;;;;1.07;91.57;101942.63;10296719;28;20507;-70
2022/11/29 11:25:40;;;;;;;8.98;2.38;;;;;;;0.95;92.14;101916.97;10296048;28;20061;-72
2022/11/29 11:30:51;;;;;;;16.83;2.75;;;;;;;1.09;92.46;101935.56;10295788;28;20046;-71
2022/11/29 11:36:13;;;;;;;13.27;2.88;;;;;;;1.24;91.23;101934.03;10298846;28;20547;-71
2022/11/29 11:46:50;;;;;;;13.95;3.40;;;;;;;1.08;91.12;101941.72;10335562;28;20046;-72
2022/11/29 11:51:51;;;;;;;13.70;2.47;;;;;;;0.10;90.97;101786.44;10306455;28;20077;-71
2022/11/29 11:56:52;;;;;;;11.05;2.42;;;;;;;1.09;91.26;101951.25;10296011;28;20683;-72
2022/11/29 12:01:53;;;;;;;13.43;4.55;;;;;;;1.01;90.58;101954.19;10293589;28;20042;-73
2022/11/29 12:06:56;;;;;;;9.43;1.85;;;;;;;1.04;91.08;101947.97;10293165;28;20058;-73
2022/11/29 12:12:36;;;;;;;14.32;2.25;;;;;;;1.07;90.64;101966.16;10302526;28;20049;-74
2022/11/29 12:17:43;;;;;;;8.77;1.90;;;;;;;0.58;90.80;101900.28;10309544;28;20454;-72
2022/11/29 12:22:57;;;;;;;9.63;3.08;;;;;;;1.01;90.26;101979.53;10300368;28;20495;-72
2022/11/29 12:27:59;;;;;;;8.90;2.10;;;;;;;1.01;90.21;101963.81;10296021;28;20045;-71
2022/11/29 12:33:25;;;;;;;9.45;2.75;;;;;;;0.68;90.57;101912.03;10296653;28;20124;-72
2022/11/29 12:38:31;;;;;;;11.00;2.13;;;;;;;0.06;90.94;101817.09;10303482;28;20133;-72
2022/11/29 12:43:46;;;;;;;10.80;2.38;;;;;;;0.67;90.73;101918.19;10322338;28;20149;-74
2022/11/29 12:49:12;;;;;;;11.40;2.80;;;;;;;0.92;89.87;101993.84;10314456;28;20061;-73
2022/11/29 12:54:46;;;;;;;12.02;1.80;;;;;;;0.98;90.64;101987.50;10292461;28;20054;-71
2022/11/29 13:00:13;;;;;;;10.57;1.65;;;;;;;0.99;90.59;102000.53;10276452;28;20077;-72
2022/11/29 13:05:35;;;;;;;6.93;1.73;;;;;;;0.47;90.82;101907.72;10311376;28;20056;-72
2022/11/29 13:10:39;;;;;;;9.10;1.90;;;;;;;0.98;90.52;102005.81;10322030;28;20045;-72
2022/11/29 13:15:47;;;;;;;8.80;2.00;;;;;;;0.54;89.95;101937.91;10298855;28;20042;-73
2022/11/29 13:21:30;;;;;;;11.55;1.98;;;;;;;0.99;90.64;102008.38;10292986;28;20046;-72
2022/11/29 13:26:33;;;;;;;7.18;1.98;;;;;;;0.77;89.63;101990.13;10216274;29;20048;-73
2022/11/29 13:31:35;;;;;;;8.02;2.22;;;;;;;0.40;88.59;101939.34;10278400;28;20096;-74
2022/11/29 13:36:46;;;;;;;15.52;2.17;;;;;;;0.84;89.22;102015.13;10296610;28;20428;-74
2022/11/29 13:42:10;;;;;;;12.23;2.45;;;;;;;0.86;89.47;102012.41;10289146;28;20045;-72
2022/11/29 13:47:14;;;;;;;12.13;2.97;;;;;;;0.75;89.31;101999.81;10284345;28;20054;-74
2022/11/29 13:52:42;;;;;;;13.20;1.85;;;;;;;0.93;89.52;102013.88;10287329;28;20483;-74
2022/11/29 13:57:53;;;;;;;15.25;2.60;;;;;;;0.91;89.99;102024.41;10283856;28;20094;-74
2022/11/29 14:02:56;;;;;;;11.23;2.58;;;;;;;0.31;90.10;101928.44;10286577;28;20121;-72
2022/11/29 14:08:27;;;;;;;9.50;2.08;;;;;;;0.96;90.11;102033.81;10294566;28;20092;-73
2022/11/29 14:13:56;;;;;;;10.07;2.08;;;;;;;0.58;89.60;101978.72;10290690;28;20133;-72
2022/11/29 14:19:25;;;;;;;14.05;2.50;;;;;;;0.95;89.76;102045.19;10270856;28;20098;-72
2022/11/29 14:24:35;;;;;;;14.73;2.15;;;;;;;0.93;89.84;102049.63;10308539;28;20445;-72
2022/11/29 14:35:23;;;;;;;10.30;2.58;;;;;;;0.91;89.63;102055.78;10301196;28;20044;-71
2022/11/29 14:40:30;;;;;;;9.90;1.92;;;;;;;0.88;89.76;102032.38;10339299;28;20136;-73
2022/11/29 14:45:33;;;;;;;8.00;2.05;;;;;;;0.80;89.99;102026.59;10338524;28;20046;-72
2022/11/29 14:50:38;;;;;;;8.40;2.10;;;;;;;0.94;90.13;102049.59;10308992;28;20066;-72
2022/11/29 14:55:39;;;;;;;8.50;2.08;;;;;;;0.92;90.94;102051.41;10288063;28;20043;-74
2022/11/29 15:00:46;;;;;;;9.75;1.98;;;;;;;1.00;91.45;102056.34;10282697;28;20050;-74
2022/11/29 15:05:54;;;;;;;15.15;2.08;;;;;;;0.93;91.38;102049.63;10283670;28;20050;-71
2022/11/29 15:11:00;;;;;;;9.38;1.73;;;;;;;1.03;91.83;102071.91;10278892;28;20097;-71
2022/11/29 15:16:29;;;;;;;10.15;2.20;;;;;;;0.64;92.14;101991.56;10288518;28;20047;-72
2022/11/29 15:21:59;;;;;;;7.88;2.13;;;;;;;1.00;91.55;102054.56;10281191;28;20499;-72
2022/11/29 15:27:01;;;;;;;6.65;1.73;;;;;;;1.06;91.00;102083.09;10273651;28;20528;-73
2022/11/29 15:32:04;;;;;;;6.05;1.60;;;;;;;0.98;90.33;102066.00;10271722;28;20046;-73
2022/11/29 15:37:05;;;;;;;7.85;1.60;;;;;;;1.03;90.24;102077.16;10275601;28;20046;-72
2022/11/29 15:42:12;;;;;;;6.97;2.00;;;;;;;0.93;90.62;102071.44;10276008;28;20500;-71
2022/11/29 15:47:25;;;;;;;12.68;2.03;;;;;;;1.06;91.60;102077.00;10286344;28;20065;-72
2022/11/29 15:52:32;;;;;;;5.40;1.77;;;;;;;0.95;90.88;102068.75;10290311;28;20108;-75
2022/11/29 15:57:40;;;;;;;7.05;1.70;;;;;;;0.85;90.92;102074.38;10288416;28;20062;-73
2022/11/29 16:03:06;;;;;;;7.70;1.55;;;;;;;0.54;91.23;102013.75;10287899;28;20042;-72
2022/11/29 16:08:15;;;;;;;5.57;1.92;;;;;;;0.52;91.62;102012.97;10288803;28;20133;-70
2022/11/29 16:13:32;;;;;;;4.15;1.50;;;;;;;1.04;92.13;102097.16;10287852;28;20086;-73
2022/11/29 16:18:35;;;;;;;6.45;2.03;;;;;;;0.94;91.74;102103.69;10296979;28;20039;-72
2022/11/29 16:23:41;;;;;;;4.05;1.60;;;;;;;0.51;90.71;102050.47;10287395;28;20039;-72
2022/11/29 16:28:45;;;;;;;3.47;1.58;;;;;;;0.70;90.76;102097.69;10293412;28;20038;-70
2022/11/29 16:33:48;;;;;;;6.82;1.95;;;;;;;0.28;90.45;102017.44;10287841;28;20043;-74
2022/11/29 16:39:03;;;;;;;4.40;1.50;;;;;;;0.70;90.14;102095.91;10288459;28;20539;-74
2022/11/29 16:44:20;;;;;;;8.05;1.73;;;;;;;-0.21;90.56;101948.78;10286623;28;20081;-72
2022/11/29 16:49:35;;;;;;;8.35;1.77;;;;;;;0.69;91.31;102089.00;10288238;28;20066;-72
2022/11/29 16:54:36;;;;;;;6.93;1.85;;;;;;;0.53;90.88;102074.81;10305593;28;20046;-73
2022/11/29 16:59:37;;;;;;;4.00;1.27;;;;;;;0.47;91.20;102085.50;10317977;28;20454;-75
2022/11/29 17:04:38;;;;;;;8.82;1.75;;;;;;;0.47;91.37;102083.75;10299505;28;20455;-73
2022/11/29 17:09:39;;;;;;;7.32;2.05;;;;;;;0.60;91.27;102102.41;10293605;28;20096;-73
2022/11/29 17:14:39;;;;;;;6.50;1.65;;;;;;;0.57;91.33;102103.41;10298819;28;20042;-74
2022/11/29 17:19:40;;;;;;;6.15;1.65;;;;;;;0.55;92.25;102093.91;10284625;28;20047;-73
2022/11/29 17:24:41;;;;;;;4.90;1.48;;;;;;;0.53;92.58;102107.03;10299520;28;20057;-73
2022/11/29 17:29:42;;;;;;;6.75;1.75;;;;;;;0.61;92.33;102120.69;10308068;28;20039;-73
2022/11/29 17:34:43;;;;;;;4.28;1.73;;;;;;;0.63;92.28;102125.84;10306701;28;20042;-72
2022/11/29 17:39:46;;;;;;;5.75;1.65;;;;;;;0.15;91.91;102049.28;10290903;28;20491;-73
2022/11/29 17:44:47;;;;;;;4.87;1.73;;;;;;;0.59;92.22;102114.63;10292107;28;20058;-74
2022/11/29 17:49:48;;;;;;;6.68;1.67;;;;;;;0.66;91.86;102137.03;10292251;28;20066;-73
2022/11/29 17:54:49;;;;;;;3.25;1.42;;;;;;;0.09;91.20;102031.22;10291669;28;20085;-73
2022/11/29 17:59:49;;;;;;;5.40;1.20;;;;;;;0.45;92.04;102091.66;10290616;28;20052;-72
2022/11/29 18:04:50;;;;;;;7.35;2.20;;;;;;;0.05;92.24;102029.63;10291120;28;20066;-73
2022/11/29 18:09:51;;;;;;;7.82;2.03;;;;;;;0.26;92.55;102064.53;10290791;28;20479;-72
2022/11/29 18:14:52;;;;;;;6.07;1.80;;;;;;;0.52;92.15;102109.72;10290079;28;20071;-72
2022/11/29 18:19:52;;;;;;;9.25;1.75;;;;;;;0.47;92.38;102102.06;10291216;28;20050;-71
2022/11/29 18:24:53;;;;;;;6.97;1.92;;;;;;;-0.39;92.09;101953.81;10290589;28;20035;-71
2022/11/29 18:29:54;;;;;;;5.38;1.73;;;;;;;0.36;91.93;102081.56;10290823;28;20167;-72
2022/11/29 18:34:55;;;;;;;5.90;1.92;;;;;;;0.49;92.13;102109.84;10290138;28;20559;-72
2022/11/29 18:39:56;;;;;;;9.05;2.25;;;;;;;-0.17;92.42;102000.00;10290159;28;20051;-72
2022/11/29 18:44:56;;;;;;;5.90;2.05;;;;;;;0.42;92.87;102106.63;10298685;28;20511;-72
2022/11/29 18:49:57;;;;;;;5.95;2.20;;;;;;;0.35;93.22;102095.53;10310966;28;20073;-72
2022/11/29 18:54:58;;;;;;;8.18;1.98;;;;;;;0.39;92.77;102107.59;10334316;28;20050;-71
2022/11/29 18:59:59;;;;;;;8.07;1.70;;;;;;;0.31;93.13;102093.97;10317559;28;20042;-73
2022/11/29 19:04:59;;;;;;;6.07;1.90;;;;;;;-0.13;93.37;102010.28;10296054;28;20061;-72
2022/11/29 19:10:00;;;;;;;8.35;1.77;;;;;;;0.12;93.40;102056.34;10297109;28;20050;-72
2022/11/29 19:15:02;;;;;;;10.23;1.88;;;;;;;0.32;93.19;102092.19;10297080;28;20438;-71
2022/11/29 19:20:03;;;;;;;8.63;2.33;;;;;;;0.32;93.30;102094.81;10297028;28;20043;-70
2022/11/29 19:25:04;;;;;;;5.13;1.70;;;;;;;0.27;93.45;102078.44;10297202;28;20047;-70
2022/11/29 19:30:05;;;;;;;8.57;1.92;;;;;;;0.28;93.16;102075.78;10297057;28;20521;-71
2022/11/29 19:35:06;;;;;;;7.38;2.08;;;;;;;0.11;93.90;102055.50;10294656;28;20046;-70
2022/11/29 19:40:09;;;;;;;13.50;2.00;;;;;;;0.29;93.99;102077.47;10295514;28;20046;-72
2022/11/29 19:45:10;;;;;;;8.00;1.90;;;;;;;-0.69;94.09;101911.41;10300750;28;20045;-70
2022/11/29 19:50:11;;;;;;;7.22;2.17;;;;;;;-0.26;93.56;101969.88;10335278;28;20383;-71
2022/11/29 19:55:11;;;;;;;10.52;2.45;;;;;;;0.21;93.55;102040.34;10335876;28;20458;-72
2022/11/29 20:00:13;;;;;;;9.38;1.80;;;;;;;0.29;93.33;102067.00;10335588;28;20494;-73
2022/11/29 20:05:14;;;;;;;5.30;2.05;;;;;;;0.20;93.24;102042.09;10335173;28;20084;-72
2022/11/29 20:10:14;;;;;;;8.60;2.10;;;;;;;0.35;93.76;102069.38;10334745;28;20066;-72
2022/11/29 20:15:15;;;;;;;11.45;2.38;;;;;;;0.08;93.69;102018.19;10335107;28;20050;-71
2022/11/29 20:20:16;;;;;;;12.45;2.50;;;;;;;0.07;94.03;102013.91;10333794;28;20474;-71
2022/11/29 20:25:17;;;;;;;11.93;2.58;;;;;;;0.25;93.84;102049.75;10334839;28;20595;-70
2022/11/29 20:30:18;;;;;;;10.27;2.22;;;;;;;0.32;93.35;102064.28;10334300;28;20042;-73
2022/11/29 20:35:19;;;;;;;16.90;3.10;;;;;;;-0.56;93.12;101907.47;10334231;28;20042;-70
2022/11/29 20:40:31;;;;;;;11.15;2.67;;;;;;;0.05;94.35;102023.53;10333496;28;20072;-70
2022/11/29 20:45:32;;;;;;;10.10;2.47;;;;;;;0.26;94.38;102074.13;10348426;28;20447;-75
2022/11/29 20:50:33;;;;;;;6.93;2.20;;;;;;;0.20;93.94;102070.00;10301892;28;20061;-72
2022/11/29 20:55:37;;;;;;;14.27;2.63;;;;;;;-0.02;94.77;102047.28;10292735;28;20526;-71
2022/11/29 21:00:38;;;;;;;11.60;2.38;;;;;;;0.14;94.38;102078.91;10293530;28;20066;-70
2022/11/29 21:05:39;;;;;;;16.00;2.85;;;;;;;0.08;94.08;102053.00;10292415;28;20503;-73
2022/11/29 21:10:40;;;;;;;22.10;3.05;;;;;;;0.17;94.29;102059.66;10292713;28;20051;-71
2022/11/29 21:15:42;;;;;;;12.65;2.85;;;;;;;-0.37;94.10;101979.88;10292557;28;20495;-71
2022/11/29 21:20:46;;;;;;;10.20;1.73;;;;;;;-0.33;94.11;102002.31;10292950;28;20051;-70
2022/11/29 21:25:59;;;;;;;12.90;2.50;;;;;;;0.05;93.64;102062.72;10292622;28;20129;-71
2022/11/29 21:31:00;;;;;;;15.40;2.50;;;;;;;0.07;93.68;102079.22;10292370;28;20042;-72
2022/11/29 21:36:04;;;;;;;19.33;2.60;;;;;;;-0.09;94.00;102060.63;10290783;28;20115;-70
2022/11/29 21:41:04;;;;;;;21.02;2.40;;;;;;;-0.13;93.48;102033.78;10292236;28;20085;-71
2022/11/29 21:46:05;;;;;;;13.63;2.72;;;;;;;-0.12;93.62;102045.94;10291303;28;20509;-71
2022/11/29 21:51:08;;;;;;;20.88;2.33;;;;;;;0.01;93.69;102077.69;10292590;28;20058;-71
2022/11/29 21:56:10;;;;;;;14.68;1.75;;;;;;;-0.02;92.74;102065.59;10305028;28;20046;-71
2022/11/29 22:01:17;;;;;;;20.27;2.80;;;;;;;-0.04;92.97;102064.78;10330962;28;20057;-71
2022/11/29 22:06:19;;;;;;;24.30;2.30;;;;;;;-0.67;93.43;101972.25;10332102;28;20514;-70
2022/11/29 22:11:32;;;;;;;24.02;2.80;;;;;;;-0.11;93.72;102084.22;10331552;28;20388;-71
2022/11/29 22:16:33;;;;;;;21.40;2.77;;;;;;;-0.54;93.69;102023.13;10330810;28;20050;-72
2022/11/29 22:21:34;;;;;;;19.42;2.80;;;;;;;-0.41;93.98;102044.41;10331188;28;20446;-72
2022/11/29 22:26:36;;;;;;;18.85;2.90;;;;;;;-0.55;94.45;102050.13;10334842;28;20047;-71
2022/11/29 22:31:37;;;;;;;20.88;3.20;;;;;;;-0.82;95.11;102014.56;10337800;28;20081;-70
2022/11/29 22:36:38;;;;;;;21.20;2.58;;;;;;;-1.10;95.24;101993.81;10338515;28;20050;-70
2022/11/29 22:41:40;;;;;;;23.70;2.55;;;;;;;-0.81;96.54;102077.09;10339061;28;20438;-71
2022/11/29 22:46:41;;;;;;;16.65;2.53;;;;;;;-0.88;97.13;102075.63;10337603;28;20121;-70
2022/11/29 22:51:42;;;;;;;15.57;2.58;;;;;;;-1.23;97.47;102035.06;10338128;28;20453;-70
2022/11/29 22:56:44;;;;;;;20.83;2.85;;;;;;;-0.94;97.60;102094.94;10337520;28;20133;-71
2022/11/29 23:01:45;;;;;;;17.63;2.83;;;;;;;-1.12;97.23;102052.97;10337781;28;20077;-70
2022/11/29 23:06:46;;;;;;;26.35;2.90;;;;;;;-1.00;97.35;102083.88;10338340;28;20054;-72
2022/11/29 23:11:53;;;;;;;24.70;2.47;;;;;;;-1.05;97.87;102078.78;10337502;28;20515;-71
2022/11/29 23:16:53;;;;;;;21.05;3.08;;;;;;;-1.53;98.98;102011.69;10336746;28;20077;-70
2022/11/29 23:21:55;;;;;;;20.75;3.15;;;;;;;-1.27;98.97;102069.97;10336691;28;20046;-70
2022/11/29 23:26:56;;;;;;;21.52;3.05;;;;;;;-1.89;99.49;101966.81;10313728;28;20086;-70
2022/11/29 23:31:56;;;;;;;12.50;2.47;;;;;;;-1.69;100.00;102036.56;10296573;28;20093;-70
2022/11/29 23:36:57;;;;;;;17.58;2.65;;;;;;;-1.40;100.00;102079.94;10296469;28;20097;-71
2022/11/29 23:41:58;;;;;;;25.02;2.50;;;;;;;-1.55;100.00;102054.38;10296087;28;20153;-70
2022/11/29 23:46:58;;;;;;;23.60;3.03;;;;;;;-1.44;100.00;102084.38;10295498;28;20429;-70
2022/11/29 23:51:59;;;;;;;16.13;2.70;;;;;;;-1.87;100.00;101997.13;10294634;28;20039;-70